Time;durP1;ratioP1;P1;durP2;ratioP2;P2;SDS_P1;SDS_P2;PMS_P1;PMS_P2;Temp;Humidity;BMP_temperature;BMP_pressure;BME280_temperature;BME280_humidity;BME280_pressure;Samples;Min_cycle;Max_cycle;Signal;HPM_P1;HPM_P2
2023/03/01 00:01:12;;;;;;;40.33;22.67;;;-1.30;99.90;;;;;;4999948;28;20069;-76
2023/03/01 00:03:37;;;;;;;48.33;24.15;;;-1.30;99.90;;;;;;4997061;28;20567;-76
2023/03/01 00:06:04;;;;;;;40.83;22.77;;;-1.30;99.90;;;;;;4998276;28;20034;-76
2023/03/01 00:08:32;;;;;;;44.80;26.80;;;-1.40;99.90;;;;;;4981103;28;20038;-77
2023/03/01 00:11:02;;;;;;;50.72;29.10;;;-1.40;99.90;;;;;;5003333;28;20038;-77
2023/03/01 00:13:27;;;;;;;45.80;27.35;;;-1.40;99.90;;;;;;4984651;28;20403;-76
2023/03/01 00:15:53;;;;;;;38.17;24.25;;;-1.40;99.90;;;;;;4982563;28;20043;-77
2023/03/01 00:18:19;;;;;;;43.92;25.42;;;-1.40;99.90;;;;;;5002341;28;20092;-77
2023/03/01 00:20:55;;;;;;;47.92;26.98;;;-1.40;99.90;;;;;;4949544;28;20034;-76
2023/03/01 00:23:21;;;;;;;45.60;25.58;;;-1.40;99.90;;;;;;5004279;28;20077;-76
2023/03/01 00:25:47;;;;;;;46.95;25.25;;;-1.40;99.90;;;;;;5004060;28;20104;-76
2023/03/01 00:28:13;;;;;;;53.00;26.90;;;-1.40;99.90;;;;;;4982601;28;20046;-76
2023/03/01 00:30:39;;;;;;;42.60;24.77;;;-1.50;99.90;;;;;;4981384;28;20041;-76
2023/03/01 00:33:04;;;;;;;45.83;25.90;;;-1.50;99.90;;;;;;4970469;28;20895;-76
2023/03/01 00:35:32;;;;;;;39.80;24.23;;;-1.50;99.90;;;;;;5005917;28;20070;-76
2023/03/01 00:37:58;;;;;;;51.15;27.65;;;-1.50;99.90;;;;;;5006164;28;20074;-76
2023/03/01 00:40:25;;;;;;;42.97;24.15;;;-1.50;99.90;;;;;;5001363;28;20065;-77
2023/03/01 00:42:50;;;;;;;42.72;23.67;;;-1.60;99.90;;;;;;4974749;28;20033;-77
2023/03/01 00:45:16;;;;;;;50.13;28.52;;;-1.60;99.90;;;;;;5000517;28;20129;-76
2023/03/01 00:47:43;;;;;;;55.25;28.88;;;-1.60;99.90;;;;;;4994917;28;20034;-76
2023/03/01 00:50:10;;;;;;;52.40;29.02;;;-1.60;99.90;;;;;;4989832;28;20064;-76
2023/03/01 00:52:35;;;;;;;52.45;30.27;;;-1.60;99.90;;;;;;5003062;28;20521;-76
2023/03/01 00:55:01;;;;;;;42.42;26.05;;;-1.60;99.90;;;;;;5003462;28;20034;-76
2023/03/01 00:57:27;;;;;;;50.80;27.77;;;-1.70;99.90;;;;;;4985311;28;20061;-76
2023/03/01 00:59:53;;;;;;;54.15;29.20;;;-1.70;99.90;;;;;;5001035;28;20064;-76
2023/03/01 01:02:19;;;;;;;50.13;27.13;;;-1.70;99.90;;;;;;4990751;28;20072;-76
2023/03/01 01:04:46;;;;;;;50.63;29.35;;;-1.70;99.90;;;;;;5006000;28;20096;-77
2023/03/01 01:07:12;;;;;;;41.08;24.13;;;-1.70;99.90;;;;;;4996222;28;21035;-76
2023/03/01 01:09:38;;;;;;;52.88;27.33;;;-1.70;99.90;;;;;;5014885;28;20510;-77
2023/03/01 01:12:04;;;;;;;40.63;23.77;;;-1.70;99.90;;;;;;4983378;28;20038;-77
2023/03/01 01:14:29;;;;;;;50.75;27.63;;;-1.80;99.90;;;;;;5015362;28;20048;-76
2023/03/01 01:16:55;;;;;;;36.92;24.48;;;-1.80;99.90;;;;;;5004741;28;20045;-76
2023/03/01 01:19:21;;;;;;;38.67;25.20;;;-1.80;99.90;;;;;;4972463;28;20692;-76
2023/03/01 01:21:48;;;;;;;42.90;24.50;;;-1.80;99.90;;;;;;5000717;28;20038;-76
2023/03/01 01:24:14;;;;;;;42.50;24.83;;;-1.80;99.90;;;;;;4987031;28;20050;-76
2023/03/01 01:26:40;;;;;;;39.30;23.85;;;-1.90;99.90;;;;;;4988011;28;20125;-76
2023/03/01 01:29:06;;;;;;;43.40;26.08;;;-1.90;99.90;;;;;;5003272;28;20041;-77
2023/03/01 01:31:34;;;;;;;39.40;24.67;;;-1.90;99.90;;;;;;5000630;28;20133;-77
2023/03/01 01:34:01;;;;;;;45.67;25.58;;;-1.90;99.90;;;;;;5004780;28;20033;-76
2023/03/01 01:36:27;;;;;;;40.83;24.50;;;-1.90;99.90;;;;;;4999505;28;20041;-76
2023/03/01 01:38:53;;;;;;;43.35;25.60;;;-1.90;99.90;;;;;;4989043;28;20045;-77
2023/03/01 01:41:20;;;;;;;50.78;29.02;;;-1.90;99.90;;;;;;4999480;28;20145;-76
2023/03/01 01:44:11;;;;;;;47.08;25.88;;;-1.90;99.90;;;;;;4986199;28;20046;-77
2023/03/01 01:46:40;;;;;;;44.05;25.75;;;-2.00;99.90;;;;;;5005845;28;20045;-76
2023/03/01 01:49:23;;;;;;;39.63;23.45;;;-1.70;99.90;;;;;;4982370;28;20082;-77
2023/03/01 01:51:51;;;;;;;;;;;-2.00;99.90;;;;;;5006714;28;20458;-76
2023/03/01 01:54:37;;;;;;;44.15;26.95;;;-2.00;99.90;;;;;;5000356;28;19922;-76
2023/03/01 01:57:07;;;;;;;45.67;26.17;;;-2.00;99.90;;;;;;4998360;28;20049;-76
2023/03/01 01:59:34;;;;;;;54.78;31.73;;;-2.10;99.90;;;;;;5002112;28;20041;-76
2023/03/01 02:02:03;;;;;;;50.08;30.30;;;-2.00;99.90;;;;;;5002260;28;20137;-76
2023/03/01 02:04:30;;;;;;;47.67;26.77;;;-2.00;99.90;;;;;;5003761;28;20061;-77
2023/03/01 02:07:16;;;;;;;39.92;22.45;;;-2.10;99.90;;;;;;5004917;28;20720;-77
2023/03/01 02:09:48;;;;;;;43.20;26.50;;;-2.20;99.90;;;;;;4987094;28;20049;-76
2023/03/01 02:12:20;;;;;;;39.90;24.80;;;-2.20;99.90;;;;;;5000439;28;20030;-76
2023/03/01 02:14:45;;;;;;;39.40;24.90;;;-2.20;99.90;;;;;;5002183;28;20041;-77
2023/03/01 02:17:13;;;;;;;41.70;25.77;;;-2.30;99.90;;;;;;5003264;28;20129;-76
2023/03/01 02:19:43;;;;;;;39.17;26.08;;;-2.30;99.90;;;;;;5005232;28;20044;-76
2023/03/01 02:22:28;;;;;;;40.08;23.73;;;-2.30;99.90;;;;;;5002032;28;20045;-77
2023/03/01 02:25:01;;;;;;;40.95;25.42;;;-2.40;99.90;;;;;;4996383;28;20057;-77
2023/03/01 02:27:51;;;;;;;42.50;26.67;;;-2.40;99.90;;;;;;4997400;28;20129;-76
2023/03/01 02:30:19;;;;;;;42.38;24.80;;;-2.40;99.90;;;;;;5006018;28;20116;-77
2023/03/01 02:32:47;;;;;;;42.33;24.73;;;-2.40;99.90;;;;;;5002269;28;20066;-77
2023/03/01 02:35:15;;;;;;;38.60;24.52;;;-2.50;99.90;;;;;;4984177;28;20390;-77
2023/03/01 02:37:43;;;;;;;42.72;25.42;;;-2.50;99.90;;;;;;4987331;28;20408;-76
2023/03/01 02:40:17;;;;;;;37.67;23.58;;;-2.50;99.90;;;;;;4999635;28;20054;-77
2023/03/01 02:42:57;;;;;;;38.55;23.88;;;-2.60;99.90;;;;;;4996066;28;20046;-76
2023/03/01 02:45:24;;;;;;;40.55;24.02;;;-2.60;99.90;;;;;;4996658;28;20195;-77
2023/03/01 02:47:50;;;;;;;39.30;25.10;;;-2.60;99.90;;;;;;4999645;28;20045;-77
2023/03/01 02:50:32;;;;;;;50.08;27.02;;;-2.60;99.90;;;;;;5003023;28;20025;-76
2023/03/01 02:53:19;;;;;;;63.37;34.20;;;-2.30;99.90;;;;;;4984318;28;20035;-76
2023/03/01 02:55:45;;;;;;;40.08;25.25;;;-2.50;99.90;;;;;;5003669;28;20866;-76
2023/03/01 02:58:11;;;;;;;41.20;26.38;;;-2.60;99.90;;;;;;4967878;28;20125;-77
2023/03/01 03:00:43;;;;;;;43.63;28.52;;;-2.60;99.90;;;;;;4953973;28;20128;-76
2023/03/01 03:03:12;;;;;;;44.15;24.70;;;-2.60;99.90;;;;;;5004111;28;20599;-77
2023/03/01 03:05:38;;;;;;;43.75;25.65;;;-2.60;99.90;;;;;;4982956;28;20071;-77
2023/03/01 03:08:04;;;;;;;40.22;26.23;;;-2.60;99.90;;;;;;4986616;28;20124;-77
2023/03/01 03:10:32;;;;;;;35.17;23.55;;;-2.60;99.90;;;;;;4971719;28;20038;-77
2023/03/01 03:13:04;;;;;;;46.95;27.00;;;-2.60;99.90;;;;;;4996696;28;20045;-77
2023/03/01 03:15:30;;;;;;;42.92;27.00;;;-2.60;99.90;;;;;;5001698;28;20585;-77
2023/03/01 03:17:57;;;;;;;35.67;22.83;;;-2.60;99.90;;;;;;4997918;28;20132;-77
2023/03/01 03:20:27;;;;;;;41.75;23.35;;;-2.60;99.90;;;;;;5002945;28;20045;-77
2023/03/01 03:22:55;;;;;;;43.88;26.35;;;-2.70;99.90;;;;;;5000215;28;20042;-77
2023/03/01 03:25:22;;;;;;;45.60;26.42;;;-2.60;99.90;;;;;;5005781;28;20169;-77
2023/03/01 03:27:49;;;;;;;39.75;24.33;;;-2.70;99.90;;;;;;4985081;28;20034;-77
2023/03/01 03:30:21;;;;;;;44.03;26.30;;;-2.70;99.90;;;;;;4995688;28;20045;-77
2023/03/01 03:32:52;;;;;;;42.53;26.10;;;-2.70;99.90;;;;;;4996172;28;20034;-77
2023/03/01 03:35:20;;;;;;;42.03;26.58;;;-2.70;99.90;;;;;;5000191;28;20359;-77
2023/03/01 03:38:01;;;;;;;36.65;23.23;;;-2.70;99.90;;;;;;4985975;28;20038;-77
2023/03/01 03:40:33;;;;;;;39.53;22.95;;;-2.70;99.90;;;;;;4983736;28;20046;-77
2023/03/01 03:42:58;;;;;;;47.33;27.13;;;-2.70;99.90;;;;;;4998144;28;20036;-77
2023/03/01 03:45:24;;;;;;;41.65;26.67;;;-2.70;99.90;;;;;;4984395;28;20510;-76
2023/03/01 03:47:50;;;;;;;34.88;21.63;;;-2.80;99.90;;;;;;4986718;28;20046;-77
2023/03/01 03:50:17;;;;;;;38.47;24.42;;;-2.80;99.90;;;;;;5000851;28;20037;-77
2023/03/01 03:52:43;;;;;;;39.40;23.20;;;-2.80;99.90;;;;;;4987789;28;20040;-76
2023/03/01 03:55:11;;;;;;;38.78;24.00;;;-2.80;99.90;;;;;;5019499;28;20053;-77
2023/03/01 03:57:39;;;;;;;45.83;25.92;;;-2.80;99.90;;;;;;4999932;28;20048;-76
2023/03/01 04:00:12;;;;;;;38.42;23.33;;;-2.80;99.90;;;;;;5004994;28;20076;-77
2023/03/01 04:02:39;;;;;;;39.58;24.60;;;-2.90;99.90;;;;;;4998066;28;20129;-77
2023/03/01 04:05:06;;;;;;;39.05;24.00;;;-2.90;99.90;;;;;;4984676;28;20042;-77
2023/03/01 04:07:32;;;;;;;40.55;23.88;;;-2.90;99.90;;;;;;4999264;28;20042;-77
2023/03/01 04:09:57;;;;;;;40.40;22.15;;;-2.90;99.90;;;;;;5004410;28;20042;-77
2023/03/01 04:12:23;;;;;;;43.45;26.67;;;-3.00;99.90;;;;;;4987924;28;20054;-76
2023/03/01 04:14:49;;;;;;;40.90;26.67;;;-3.00;99.90;;;;;;4986748;28;20042;-77
2023/03/01 04:17:14;;;;;;;39.28;24.60;;;-3.00;99.90;;;;;;5006441;28;20057;-77
2023/03/01 04:19:43;;;;;;;42.08;24.80;;;-3.00;99.90;;;;;;4972127;28;20045;-77
2023/03/01 04:22:11;;;;;;;35.08;22.38;;;-3.00;99.90;;;;;;4994330;28;20077;-77
2023/03/01 04:24:36;;;;;;;43.22;26.38;;;-3.00;99.90;;;;;;5003971;28;20045;-77
2023/03/01 04:27:02;;;;;;;37.92;23.65;;;-3.00;99.90;;;;;;4979330;28;20049;-77
2023/03/01 04:29:28;;;;;;;38.10;23.10;;;-3.00;99.90;;;;;;4988315;28;20113;-77
2023/03/01 04:31:54;;;;;;;40.75;26.10;;;-3.00;99.90;;;;;;5000922;28;20501;-77
2023/03/01 04:34:19;;;;;;;35.35;22.58;;;-3.00;99.90;;;;;;5005490;28;20121;-77
2023/03/01 04:36:45;;;;;;;38.88;22.58;;;-3.10;99.90;;;;;;5007758;28;20042;-77
2023/03/01 04:39:14;;;;;;;33.85;21.45;;;-3.10;99.90;;;;;;5015660;28;20060;-77
2023/03/01 04:41:40;;;;;;;43.65;25.20;;;-3.10;99.90;;;;;;4988890;28;20096;-77
2023/03/01 04:44:06;;;;;;;35.22;22.50;;;-3.10;99.90;;;;;;4986737;28;20159;-77
2023/03/01 04:46:32;;;;;;;44.28;23.33;;;-3.10;99.90;;;;;;4988351;28;20140;-77
2023/03/01 04:48:58;;;;;;;51.90;30.60;;;-3.20;99.90;;;;;;4990418;28;20121;-77
2023/03/01 04:51:24;;;;;;;41.03;26.10;;;-3.10;99.90;;;;;;4984203;28;20106;-77
2023/03/01 04:53:50;;;;;;;38.95;23.33;;;-3.20;99.90;;;;;;4991380;28;20034;-77
2023/03/01 04:56:17;;;;;;;47.47;27.83;;;-3.10;99.90;;;;;;4987112;28;20049;-77
2023/03/01 04:58:43;;;;;;;40.80;25.13;;;-3.20;99.90;;;;;;4990829;28;20030;-77
2023/03/01 05:01:14;;;;;;;41.70;25.77;;;-3.20;99.90;;;;;;4982802;28;20084;-77
2023/03/01 05:03:42;;;;;;;38.97;23.27;;;-3.20;99.90;;;;;;4985574;28;20451;-77
2023/03/01 05:06:07;;;;;;;36.60;24.08;;;-3.20;99.90;;;;;;5006524;28;20383;-76
2023/03/01 05:08:36;;;;;;;39.20;25.55;;;-3.30;99.90;;;;;;4971985;28;20050;-77
2023/03/01 05:11:02;;;;;;;37.13;22.83;;;-3.30;99.90;;;;;;5002132;28;20088;-77
2023/03/01 05:13:29;;;;;;;38.33;24.00;;;-3.30;99.90;;;;;;4983138;28;20552;-77
2023/03/01 05:16:00;;;;;;;37.53;24.70;;;-3.40;99.90;;;;;;4987768;28;20499;-77
2023/03/01 05:18:28;;;;;;;36.03;24.33;;;-3.40;99.90;;;;;;4989655;28;20499;-76
2023/03/01 05:21:04;;;;;;;42.75;25.05;;;-3.40;99.90;;;;;;5000073;28;20073;-76
2023/03/01 05:23:31;;;;;;;43.08;28.15;;;-3.50;99.90;;;;;;4998539;28;20049;-77
2023/03/01 05:26:01;;;;;;;39.72;24.75;;;-3.40;99.90;;;;;;5000173;28;20103;-77
2023/03/01 05:28:28;;;;;;;45.20;28.10;;;-3.50;99.90;;;;;;4991523;28;20849;-77
2023/03/01 05:30:54;;;;;;;41.85;25.52;;;-3.40;99.90;;;;;;4986283;28;20079;-77
2023/03/01 05:33:21;;;;;;;45.67;28.15;;;-3.50;99.90;;;;;;5019893;28;20440;-77
2023/03/01 05:35:49;;;;;;;41.13;26.42;;;-3.50;99.90;;;;;;5001220;28;20039;-77
2023/03/01 05:38:15;;;;;;;40.20;26.95;;;-3.50;99.90;;;;;;5003909;28;20050;-77
2023/03/01 05:40:42;;;;;;;36.70;22.52;;;-3.50;99.90;;;;;;5004263;28;20038;-77
2023/03/01 05:43:08;;;;;;;36.63;25.00;;;-3.50;99.90;;;;;;4985771;28;20044;-77
2023/03/01 05:45:36;;;;;;;33.88;22.48;;;-3.50;99.90;;;;;;5005964;28;20045;-76
2023/03/01 05:48:04;;;;;;;38.00;23.23;;;-3.50;99.90;;;;;;5001038;28;20043;-77
2023/03/01 05:50:33;;;;;;;41.58;27.02;;;-3.50;99.90;;;;;;5004320;28;20937;-77
2023/03/01 05:53:05;;;;;;;48.00;29.15;;;-3.60;99.90;;;;;;4999457;28;20045;-76
2023/03/01 05:55:32;;;;;;;43.83;27.75;;;-3.50;99.90;;;;;;4999707;28;20496;-76
2023/03/01 05:57:59;;;;;;;45.33;27.52;;;-3.60;99.90;;;;;;5000419;28;20092;-76
2023/03/01 06:00:25;;;;;;;41.53;26.30;;;-3.60;99.90;;;;;;4989127;28;20479;-77
2023/03/01 06:02:51;;;;;;;54.78;29.13;;;-3.60;99.90;;;;;;4990039;28;20108;-77
2023/03/01 06:05:18;;;;;;;43.17;25.58;;;-3.50;99.90;;;;;;4969836;28;20037;-76
2023/03/01 06:07:44;;;;;;;41.17;25.13;;;-3.50;99.90;;;;;;5002903;28;21651;-76
2023/03/01 06:10:11;;;;;;;39.80;25.05;;;-3.60;99.90;;;;;;5001109;28;20107;-76
2023/03/01 06:12:38;;;;;;;45.92;26.90;;;-3.60;99.90;;;;;;4999595;28;20118;-77
2023/03/01 06:15:06;;;;;;;46.05;27.45;;;-3.60;99.90;;;;;;5003340;28;20124;-76
2023/03/01 06:17:37;;;;;;;44.75;27.67;;;-3.60;99.90;;;;;;5000705;28;20049;-76
2023/03/01 06:20:14;;;;;;;48.33;28.13;;;-3.60;99.90;;;;;;5017504;28;20076;-76
2023/03/01 06:22:40;;;;;;;35.42;22.90;;;-3.70;99.90;;;;;;5006622;28;20049;-76
2023/03/01 06:25:07;;;;;;;43.10;26.15;;;-3.70;99.90;;;;;;5013545;28;20045;-76
2023/03/01 06:27:33;;;;;;;40.50;25.85;;;-3.70;99.90;;;;;;4987767;28;20050;-76
2023/03/01 06:29:58;;;;;;;50.90;31.23;;;-3.70;99.90;;;;;;4998319;28;20052;-76
2023/03/01 06:32:24;;;;;;;50.53;29.40;;;-3.70;99.90;;;;;;4998952;28;20388;-77
2023/03/01 06:34:50;;;;;;;49.45;29.70;;;-3.70;99.90;;;;;;4998912;28;20053;-77
2023/03/01 06:37:16;;;;;;;54.15;32.20;;;-3.70;99.90;;;;;;4971570;28;20045;-76
2023/03/01 06:39:42;;;;;;;47.50;29.67;;;-3.70;99.90;;;;;;4999853;28;20041;-76
2023/03/01 06:42:09;;;;;;;48.22;28.88;;;-3.70;99.90;;;;;;4969637;28;20091;-77
2023/03/01 06:44:36;;;;;;;45.72;27.23;;;-3.70;99.90;;;;;;5003457;28;20517;-77
2023/03/01 06:47:02;;;;;;;49.72;28.30;;;-3.70;99.90;;;;;;4985659;28;20132;-76
2023/03/01 06:49:27;;;;;;;48.20;27.00;;;-3.70;99.90;;;;;;4985290;28;20072;-77
2023/03/01 06:51:53;;;;;;;41.90;25.63;;;-3.70;99.90;;;;;;4967953;28;20085;-76
2023/03/01 06:54:21;;;;;;;36.97;22.67;;;-3.60;99.90;;;;;;5014578;28;20034;-77
2023/03/01 06:56:48;;;;;;;48.17;28.88;;;-3.60;99.90;;;;;;4987433;28;20423;-76
2023/03/01 06:59:13;;;;;;;42.42;25.95;;;-3.60;99.90;;;;;;4996760;28;20063;-76
2023/03/01 07:01:39;;;;;;;40.47;22.45;;;-3.60;99.90;;;;;;4984461;28;20535;-76
2023/03/01 07:04:05;;;;;;;37.17;22.00;;;-3.50;99.90;;;;;;4987946;28;20120;-76
2023/03/01 07:06:30;;;;;;;38.38;25.70;;;-3.50;99.90;;;;;;4976094;28;20037;-76
2023/03/01 07:08:56;;;;;;;46.85;25.10;;;-3.50;99.90;;;;;;4997569;28;20133;-76
2023/03/01 07:11:23;;;;;;;46.40;27.17;;;-3.50;99.90;;;;;;4996862;28;20361;-77
2023/03/01 07:13:48;;;;;;;43.17;25.63;;;-3.40;99.90;;;;;;4978748;28;20129;-76
2023/03/01 07:16:14;;;;;;;48.22;29.65;;;-3.40;99.90;;;;;;4996508;28;20444;-76
2023/03/01 07:18:41;;;;;;;48.35;27.80;;;-3.40;99.90;;;;;;5011423;28;20045;-76
2023/03/01 07:21:08;;;;;;;42.10;25.50;;;-3.30;99.90;;;;;;4983888;28;20290;-76
2023/03/01 07:23:33;;;;;;;42.38;25.05;;;-3.30;99.90;;;;;;4995677;28;20222;-75
2023/03/01 07:26:00;;;;;;;43.30;26.08;;;-3.20;99.90;;;;;;4999620;28;20049;-75
2023/03/01 07:28:26;;;;;;;41.72;23.98;;;-3.10;99.90;;;;;;5000398;28;20623;-76
2023/03/01 07:30:52;;;;;;;44.15;26.45;;;-3.10;99.90;;;;;;4981279;28;20499;-76
2023/03/01 07:33:17;;;;;;;38.95;22.35;;;-3.00;99.90;;;;;;4997174;28;20045;-76
2023/03/01 07:35:43;;;;;;;46.05;26.08;;;-3.00;99.90;;;;;;4983540;28;20041;-76
2023/03/01 07:38:09;;;;;;;48.53;27.63;;;-2.90;99.90;;;;;;4986273;28;20038;-76
2023/03/01 07:40:35;;;;;;;51.00;26.60;;;-2.80;99.90;;;;;;5005586;28;20042;-76
2023/03/01 07:43:01;;;;;;;47.35;27.00;;;-2.70;99.90;;;;;;4995269;28;20049;-75
2023/03/01 07:45:28;;;;;;;50.75;30.17;;;-2.60;99.90;;;;;;5007110;28;20058;-76
2023/03/01 07:47:55;;;;;;;52.55;29.88;;;-2.60;99.90;;;;;;4991187;28;20049;-76
2023/03/01 07:50:21;;;;;;;52.40;29.52;;;-2.50;99.90;;;;;;4998089;28;20178;-76
2023/03/01 07:52:48;;;;;;;53.88;29.98;;;-2.50;99.90;;;;;;4992188;28;20042;-76
2023/03/01 07:55:15;;;;;;;59.65;32.25;;;-2.30;99.90;;;;;;5007288;28;20495;-76
2023/03/01 07:57:40;;;;;;;57.13;31.70;;;-2.30;99.90;;;;;;4996058;28;20049;-75
2023/03/01 08:00:09;;;;;;;58.45;33.05;;;-2.20;99.90;;;;;;5009144;28;20042;-75
2023/03/01 08:02:35;;;;;;;52.58;31.15;;;-2.00;99.90;;;;;;5009155;28;20038;-75
2023/03/01 08:05:00;;;;;;;51.88;31.52;;;-1.80;99.90;;;;;;4992193;28;20049;-76
2023/03/01 08:07:26;;;;;;;47.58;28.00;;;-1.40;99.90;;;;;;4975857;28;20445;-76
2023/03/01 08:09:52;;;;;;;43.08;25.75;;;-0.70;99.90;;;;;;4976097;28;20038;-76
2023/03/01 08:12:17;;;;;;;38.72;22.90;;;-0.20;99.90;;;;;;4992096;28;20042;-76
2023/03/01 08:14:43;;;;;;;40.00;22.73;;;0.20;99.90;;;;;;4974465;28;20030;-76
2023/03/01 08:17:09;;;;;;;35.28;21.25;;;0.90;99.90;;;;;;5008832;28;20521;-76
2023/03/01 08:19:34;;;;;;;36.83;21.25;;;1.70;99.90;;;;;;4992722;28;20046;-76
2023/03/01 08:22:03;;;;;;;32.83;20.67;;;2.20;99.90;;;;;;4992570;28;20095;-76
2023/03/01 08:24:29;;;;;;;40.25;21.58;;;2.60;99.90;;;;;;5009432;28;20099;-76
2023/03/01 08:26:55;;;;;;;27.33;18.77;;;2.80;99.90;;;;;;5007847;28;20446;-76
2023/03/01 08:29:21;;;;;;;31.52;19.52;;;2.80;99.90;;;;;;4991864;28;20038;-76
2023/03/01 08:31:48;;;;;;;28.30;18.08;;;2.90;99.90;;;;;;5005395;28;20643;-76
2023/03/01 08:34:16;;;;;;;26.95;18.55;;;3.50;99.90;;;;;;5007657;28;20045;-76
2023/03/01 08:36:44;;;;;;;26.42;16.90;;;3.90;99.90;;;;;;4992592;28;20041;-76
2023/03/01 08:39:12;;;;;;;23.70;16.33;;;4.50;99.90;;;;;;5008878;28;20545;-76
2023/03/01 08:41:39;;;;;;;24.33;16.10;;;4.50;99.90;;;;;;4990896;28;20040;-76
2023/03/01 08:44:05;;;;;;;21.60;15.88;;;4.60;99.90;;;;;;4991582;28;20100;-76
2023/03/01 08:46:36;;;;;;;20.20;15.48;;;4.60;99.90;;;;;;4976231;28;20069;-76
2023/03/01 08:49:11;;;;;;;18.42;13.00;;;4.60;99.90;;;;;;5010987;28;20092;-76
2023/03/01 08:51:37;;;;;;;19.05;13.70;;;5.00;99.90;;;;;;5007149;28;20079;-76
2023/03/01 08:54:07;;;;;;;19.70;14.10;;;5.20;99.90;;;;;;5008290;28;20076;-76
2023/03/01 08:56:33;;;;;;;20.75;13.95;;;5.30;99.90;;;;;;4994521;28;20046;-76
2023/03/01 08:58:59;;;;;;;18.55;14.40;;;5.30;99.90;;;;;;5008964;28;20060;-76
2023/03/01 09:01:25;;;;;;;18.23;13.05;;;5.20;99.90;;;;;;5009934;28;20523;-76
2023/03/01 09:03:51;;;;;;;16.42;13.00;;;5.10;99.90;;;;;;5021417;28;20478;-76
2023/03/01 09:06:17;;;;;;;19.08;13.32;;;5.30;99.90;;;;;;4995838;28;20034;-76
2023/03/01 09:08:45;;;;;;;20.77;14.38;;;5.70;99.90;;;;;;4994763;28;20069;-76
2023/03/01 09:11:15;;;;;;;16.92;12.88;;;6.20;99.90;;;;;;4978560;28;20041;-76
2023/03/01 09:13:40;;;;;;;18.38;13.32;;;6.80;99.90;;;;;;5010861;28;20041;-77
2023/03/01 09:16:07;;;;;;;19.52;13.68;;;7.30;99.90;;;;;;4995599;28;20033;-77
2023/03/01 09:18:34;;;;;;;16.00;12.13;;;8.00;99.90;;;;;;5010356;28;20427;-77
2023/03/01 09:21:12;;;;;;;17.08;12.90;;;8.70;99.90;;;;;;5010560;28;21405;-77
2023/03/01 09:23:40;;;;;;;18.92;13.10;;;9.40;99.90;;;;;;5010074;28;20514;-77
2023/03/01 09:26:21;;;;;;;17.83;12.38;;;10.00;99.90;;;;;;5011829;28;20041;-77
2023/03/01 09:28:49;;;;;;;15.65;12.00;;;10.40;99.90;;;;;;4994614;28;20041;-77
2023/03/01 09:31:16;;;;;;;14.35;11.75;;;11.00;99.90;;;;;;4995454;28;20105;-77
2023/03/01 09:33:42;;;;;;;16.27;12.55;;;11.50;99.90;;;;;;5010611;28;20498;-77
2023/03/01 09:36:12;;;;;;;15.18;11.88;;;11.70;99.70;;;;;;4995748;28;20081;-77
2023/03/01 09:38:37;;;;;;;15.60;11.52;;;11.80;99.30;;;;;;4993289;28;20062;-78
2023/03/01 09:41:26;;;;;;;11.45;9.57;;;12.00;97.30;;;;;;5015074;28;20503;-78
2023/03/01 09:43:57;;;;;;;9.15;8.10;;;12.60;95.50;;;;;;5011065;28;20069;-77
2023/03/01 09:46:25;;;;;;;10.37;8.13;;;12.60;90.20;;;;;;5010296;28;20427;-77
2023/03/01 09:48:56;;;;;;;13.88;9.50;;;13.10;92.60;;;;;;4990871;28;20042;-77
2023/03/01 09:51:32;;;;;;;13.02;10.23;;;12.80;91.50;;;;;;5004822;28;20034;-77
2023/03/01 09:54:00;;;;;;;14.35;10.50;;;12.90;90.60;;;;;;5007459;28;20076;-77
2023/03/01 09:56:33;;;;;;;10.73;8.60;;;12.80;91.80;;;;;;5011083;28;20049;-77
2023/03/01 09:59:11;;;;;;;18.52;8.82;;;13.10;89.90;;;;;;4992248;28;20088;-78
2023/03/01 10:01:56;;;;;;;10.95;8.52;;;13.10;87.80;;;;;;5006172;28;20554;-77
2023/03/01 10:04:46;;;;;;;14.35;9.50;;;13.40;89.30;;;;;;5021975;28;20088;-76
2023/03/01 10:07:34;;;;;;;11.52;8.73;;;13.80;87.80;;;;;;4995658;28;20096;-77
2023/03/01 10:10:01;;;;;;;10.88;8.10;;;14.20;88.10;;;;;;5007479;28;20038;-77
2023/03/01 10:12:34;;;;;;;10.88;7.38;;;14.30;87.90;;;;;;5008082;28;20474;-77
2023/03/01 10:15:14;;;;;;;8.02;5.97;;;14.40;82.90;;;;;;5037451;28;20369;-77
2023/03/01 10:17:50;;;;;;;7.25;5.47;;;14.80;79.60;;;;;;5011806;28;20083;-76
2023/03/01 10:20:24;;;;;;;7.40;5.50;;;14.30;75.90;;;;;;4994311;28;20042;-77
2023/03/01 10:22:52;;;;;;;9.95;6.25;;;14.70;75.80;;;;;;5011173;28;20382;-77
2023/03/01 10:25:35;;;;;;;7.32;5.60;;;14.70;77.70;;;;;;5007894;28;20045;-77
2023/03/01 10:28:06;;;;;;;7.18;5.40;;;14.70;75.70;;;;;;5025107;28;20061;-77
2023/03/01 10:30:41;;;;;;;10.68;5.55;;;14.80;76.60;;;;;;5005825;28;20073;-76
2023/03/01 10:33:15;;;;;;;7.68;5.07;;;14.90;75.20;;;;;;5006636;28;20038;-76
2023/03/01 10:35:40;;;;;;;7.10;4.47;;;14.80;72.20;;;;;;5009555;28;20026;-77
2023/03/01 10:38:08;;;;;;;6.82;4.28;;;15.40;71.70;;;;;;4960130;28;20045;-77
2023/03/01 10:40:35;;;;;;;5.97;4.38;;;15.60;72.50;;;;;;5009838;28;20103;-76
2023/03/01 10:43:04;;;;;;;5.15;3.83;;;15.50;70.50;;;;;;4978363;28;20038;-78
2023/03/01 10:45:30;;;;;;;5.97;4.10;;;14.90;70.00;;;;;;5008823;28;20081;-78
2023/03/01 10:48:15;;;;;;;5.70;4.10;;;14.40;69.80;;;;;;5004202;28;20522;-77
2023/03/01 10:50:47;;;;;;;6.28;4.35;;;14.70;69.40;;;;;;5004315;28;20045;-77
2023/03/01 10:53:26;;;;;;;6.25;3.72;;;14.60;70.40;;;;;;5002689;28;20442;-83
2023/03/01 10:56:08;;;;;;;6.53;3.97;;;14.60;69.50;;;;;;5032384;28;20042;-83
2023/03/01 10:58:35;;;;;;;6.25;3.75;;;14.70;69.60;;;;;;5019173;28;20037;-81
2023/03/01 11:01:24;;;;;;;5.80;3.90;;;14.60;69.90;;;;;;4999618;28;20046;-81
2023/03/01 11:04:05;;;;;;;7.15;3.53;;;14.80;67.60;;;;;;5018379;28;20100;-81
2023/03/01 11:06:31;;;;;;;6.50;4.32;;;14.70;66.80;;;;;;4987897;28;20034;-81
2023/03/01 11:09:12;;;;;;;5.47;3.88;;;14.40;69.20;;;;;;5016676;28;20423;-81
2023/03/01 11:11:38;;;;;;;4.97;3.78;;;14.00;70.60;;;;;;4974416;28;20034;-81
2023/03/01 11:14:17;;;;;;;5.20;4.10;;;13.90;69.60;;;;;;4961340;28;20041;-80
2023/03/01 11:16:46;;;;;;;4.95;3.88;;;13.60;69.30;;;;;;4987452;28;20026;-81
2023/03/01 11:19:11;;;;;;;5.53;4.10;;;13.20;70.30;;;;;;5001435;28;20030;-80
2023/03/01 11:21:54;;;;;;;6.75;4.00;;;13.20;70.20;;;;;;4985567;28;20111;-81
2023/03/01 11:24:44;;;;;;;5.70;4.00;;;13.30;70.60;;;;;;4999100;28;20034;-80
2023/03/01 11:27:16;;;;;;;5.25;4.47;;;13.20;68.50;;;;;;4985827;28;20045;-80
2023/03/01 11:29:46;;;;;;;6.13;5.33;;;13.20;70.00;;;;;;5000488;28;20116;-81
2023/03/01 11:32:14;;;;;;;7.93;4.68;;;12.80;70.20;;;;;;4983589;28;20327;-80
2023/03/01 11:35:13;;;;;;;7.85;4.55;;;12.50;70.90;;;;;;5002838;28;20045;-81
2023/03/01 11:37:47;;;;;;;6.80;4.82;;;12.20;71.70;;;;;;4989922;28;20034;-81
2023/03/01 11:40:20;;;;;;;7.05;4.43;;;12.00;72.30;;;;;;4988781;28;20117;-80
2023/03/01 11:43:09;;;;;;;8.00;5.07;;;11.70;73.10;;;;;;4989431;28;20057;-80
2023/03/01 11:45:53;;;;;;;7.00;5.57;;;11.60;74.10;;;;;;4987331;28;20042;-80
2023/03/01 11:48:30;;;;;;;6.40;5.00;;;11.40;74.90;;;;;;4986483;28;20042;-80
2023/03/01 11:51:01;;;;;;;6.90;4.65;;;11.10;75.50;;;;;;4983238;28;20383;-80
2023/03/01 11:53:40;;;;;;;6.90;5.20;;;10.80;76.10;;;;;;4997188;28;20045;-80
2023/03/01 11:56:35;;;;;;;9.98;6.40;;;10.80;76.10;;;;;;5013153;28;20034;-79
2023/03/01 11:59:39;;;;;;;8.90;5.65;;;10.50;76.50;;;;;;5000618;28;20052;-79
2023/03/01 12:02:05;;;;;;;9.40;5.35;;;10.50;77.10;;;;;;4974650;28;20050;-79
2023/03/01 12:05:03;;;;;;;11.18;6.45;;;10.30;76.80;;;;;;5002098;28;20510;-79
2023/03/01 12:07:56;;;;;;;9.15;5.65;;;10.30;77.50;;;;;;4997040;28;20038;-79
2023/03/01 12:10:28;;;;;;;7.72;5.75;;;10.30;78.70;;;;;;4993115;28;20053;-78
2023/03/01 12:13:19;;;;;;;8.13;5.68;;;10.10;77.90;;;;;;5001342;28;20052;-79
2023/03/01 12:16:09;;;;;;;8.68;5.72;;;10.10;78.20;;;;;;4981922;28;20073;-79
2023/03/01 12:18:50;;;;;;;8.00;5.55;;;10.10;77.70;;;;;;5000320;28;20046;-79
2023/03/01 12:21:18;;;;;;;8.65;5.70;;;10.20;77.90;;;;;;4986851;28;20038;-79
2023/03/01 12:23:56;;;;;;;8.38;5.53;;;10.20;78.10;;;;;;5009975;28;20041;-78
2023/03/01 12:26:25;;;;;;;9.50;5.90;;;10.10;77.60;;;;;;5001564;28;20041;-78
2023/03/01 12:29:14;;;;;;;10.45;6.18;;;10.10;78.40;;;;;;4986075;28;20034;-78
2023/03/01 12:32:03;;;;;;;9.38;5.97;;;10.10;77.90;;;;;;5016900;28;20076;-78
2023/03/01 12:35:12;;;;;;;11.45;6.28;;;10.10;79.30;;;;;;5010228;28;20043;-79
2023/03/01 12:38:02;;;;;;;9.52;6.57;;;10.00;77.30;;;;;;5004126;28;20056;-79
2023/03/01 12:40:35;;;;;;;9.55;5.93;;;10.20;77.70;;;;;;4999512;28;20037;-79
2023/03/01 12:43:13;;;;;;;10.38;6.20;;;10.20;76.10;;;;;;5003500;28;21961;-79
2023/03/01 12:46:09;;;;;;;21.42;9.52;;;10.30;77.50;;;;;;5018290;28;20133;-80
2023/03/01 12:48:53;;;;;;;11.35;6.53;;;10.30;77.00;;;;;;5001765;28;20125;-79